sensor_id;sensor_type;location;lat;lon;timestamp;P1;durP1;ratioP1;P2;durP2;ratioP2
60588;SDS011;46421;48.610;9.334;2022-12-18T00:00:43;0.80;;;0.80;;
60588;SDS011;46421;48.610;9.334;2022-12-18T00:03:11;0.80;;;0.80;;
60588;SDS011;46421;48.610;9.334;2022-12-18T00:05:37;0.90;;;0.90;;
60588;SDS011;46421;48.610;9.334;2022-12-18T00:08:02;0.80;;;0.80;;
60588;SDS011;46421;48.610;9.334;2022-12-18T00:10:28;0.85;;;0.85;;
60588;SDS011;46421;48.610;9.334;2022-12-18T00:12:54;0.90;;;0.90;;
60588;SDS011;46421;48.610;9.334;2022-12-18T00:15:19;0.75;;;0.75;;
60588;SDS011;46421;48.610;9.334;2022-12-18T00:17:44;0.90;;;0.90;;
60588;SDS011;46421;48.610;9.334;2022-12-18T00:20:10;0.73;;;0.73;;
60588;SDS011;46421;48.610;9.334;2022-12-18T00:22:35;0.88;;;0.88;;
60588;SDS011;46421;48.610;9.334;2022-12-18T00:25:01;0.93;;;0.93;;
60588;SDS011;46421;48.610;9.334;2022-12-18T00:27:26;0.82;;;0.82;;
60588;SDS011;46421;48.610;9.334;2022-12-18T00:29:52;0.80;;;0.80;;
60588;SDS011;46421;48.610;9.334;2022-12-18T00:32:17;0.90;;;0.90;;
60588;SDS011;46421;48.610;9.334;2022-12-18T00:34:43;0.70;;;0.70;;
60588;SDS011;46421;48.610;9.334;2022-12-18T00:37:08;0.93;;;0.93;;
60588;SDS011;46421;48.610;9.334;2022-12-18T00:39:34;0.77;;;0.77;;
60588;SDS011;46421;48.610;9.334;2022-12-18T00:41:59;0.80;;;0.80;;
60588;SDS011;46421;48.610;9.334;2022-12-18T00:44:43;0.80;;;0.80;;
60588;SDS011;46421;48.610;9.334;2022-12-18T00:47:08;0.90;;;0.90;;
60588;SDS011;46421;48.610;9.334;2022-12-18T00:49:34;0.80;;;0.80;;
60588;SDS011;46421;48.610;9.334;2022-12-18T00:51:59;0.73;;;0.73;;
60588;SDS011;46421;48.610;9.334;2022-12-18T00:54:24;0.80;;;0.80;;
60588;SDS011;46421;48.610;9.334;2022-12-18T00:56:50;0.80;;;0.80;;
60588;SDS011;46421;48.610;9.334;2022-12-18T00:59:16;0.73;;;0.73;;
60588;SDS011;46421;48.610;9.334;2022-12-18T01:01:42;0.80;;;0.80;;
60588;SDS011;46421;48.610;9.334;2022-12-18T01:04:07;0.90;;;0.90;;
60588;SDS011;46421;48.610;9.334;2022-12-18T01:06:33;0.80;;;0.80;;
60588;SDS011;46421;48.610;9.334;2022-12-18T01:08:58;0.88;;;0.88;;
60588;SDS011;46421;48.610;9.334;2022-12-18T01:11:24;0.88;;;0.88;;
60588;SDS011;46421;48.610;9.334;2022-12-18T01:13:50;0.90;;;0.90;;
60588;SDS011;46421;48.610;9.334;2022-12-18T01:16:17;0.80;;;0.80;;
60588;SDS011;46421;48.610;9.334;2022-12-18T01:18:43;0.80;;;0.80;;
60588;SDS011;46421;48.610;9.334;2022-12-18T01:21:09;0.90;;;0.90;;
60588;SDS011;46421;48.610;9.334;2022-12-18T01:23:36;0.85;;;0.85;;
60588;SDS011;46421;48.610;9.334;2022-12-18T01:26:06;0.77;;;0.77;;
60588;SDS011;46421;48.610;9.334;2022-12-18T01:28:33;0.90;;;0.90;;
60588;SDS011;46421;48.610;9.334;2022-12-18T01:31:08;0.82;;;0.82;;
60588;SDS011;46421;48.610;9.334;2022-12-18T01:33:42;1.05;;;1.05;;
60588;SDS011;46421;48.610;9.334;2022-12-18T01:36:11;0.80;;;0.80;;
60588;SDS011;46421;48.610;9.334;2022-12-18T01:38:40;0.90;;;0.90;;
60588;SDS011;46421;48.610;9.334;2022-12-18T01:41:05;0.90;;;0.90;;
60588;SDS011;46421;48.610;9.334;2022-12-18T01:43:42;0.90;;;0.90;;
60588;SDS011;46421;48.610;9.334;2022-12-18T01:46:09;0.90;;;0.90;;
60588;SDS011;46421;48.610;9.334;2022-12-18T01:48:35;0.90;;;0.90;;
60588;SDS011;46421;48.610;9.334;2022-12-18T01:51:01;0.80;;;0.80;;
60588;SDS011;46421;48.610;9.334;2022-12-18T01:53:27;0.75;;;0.75;;
60588;SDS011;46421;48.610;9.334;2022-12-18T01:55:53;0.75;;;0.75;;
60588;SDS011;46421;48.610;9.334;2022-12-18T01:58:30;0.88;;;0.88;;
60588;SDS011;46421;48.610;9.334;2022-12-18T02:01:02;0.80;;;0.80;;
60588;SDS011;46421;48.610;9.334;2022-12-18T02:03:28;0.77;;;0.77;;
60588;SDS011;46421;48.610;9.334;2022-12-18T02:05:57;0.75;;;0.75;;
60588;SDS011;46421;48.610;9.334;2022-12-18T02:08:33;0.90;;;0.90;;
60588;SDS011;46421;48.610;9.334;2022-12-18T02:11:30;1.00;;;1.00;;
60588;SDS011;46421;48.610;9.334;2022-12-18T02:19:48;0.90;;;0.90;;
60588;SDS011;46421;48.610;9.334;2022-12-18T02:24:59;0.82;;;0.82;;
60588;SDS011;46421;48.610;9.334;2022-12-18T02:27:32;0.90;;;0.90;;
60588;SDS011;46421;48.610;9.334;2022-12-18T02:30:00;0.82;;;0.82;;
60588;SDS011;46421;48.610;9.334;2022-12-18T02:32:31;0.88;;;0.88;;
60588;SDS011;46421;48.610;9.334;2022-12-18T02:35:05;0.80;;;0.80;;
60588;SDS011;46421;48.610;9.334;2022-12-18T02:37:32;0.77;;;0.77;;
60588;SDS011;46421;48.610;9.334;2022-12-18T02:39:59;1.00;;;1.00;;
60588;SDS011;46421;48.610;9.334;2022-12-18T02:42:27;0.90;;;0.90;;
60588;SDS011;46421;48.610;9.334;2022-12-18T02:44:56;0.77;;;0.77;;
60588;SDS011;46421;48.610;9.334;2022-12-18T02:47:22;0.90;;;0.90;;
60588;SDS011;46421;48.610;9.334;2022-12-18T02:50:02;0.85;;;0.85;;
60588;SDS011;46421;48.610;9.334;2022-12-18T02:53:00;1.00;;;1.00;;
60588;SDS011;46421;48.610;9.334;2022-12-18T02:58:14;0.80;;;0.80;;
60588;SDS011;46421;48.610;9.334;2022-12-18T03:00:48;0.80;;;0.80;;
60588;SDS011;46421;48.610;9.334;2022-12-18T03:03:58;0.90;;;0.90;;
60588;SDS011;46421;48.610;9.334;2022-12-18T03:06:20;0.80;;;0.80;;
60588;SDS011;46421;48.610;9.334;2022-12-18T03:08:53;0.80;;;0.80;;
60588;SDS011;46421;48.610;9.334;2022-12-18T03:11:23;0.90;;;0.90;;
60588;SDS011;46421;48.610;9.334;2022-12-18T03:14:10;1.00;;;1.00;;
60588;SDS011;46421;48.610;9.334;2022-12-18T03:16:40;0.90;;;0.90;;
60588;SDS011;46421;48.610;9.334;2022-12-18T03:19:15;0.90;;;0.90;;
60588;SDS011;46421;48.610;9.334;2022-12-18T03:21:45;1.00;;;1.00;;
60588;SDS011;46421;48.610;9.334;2022-12-18T03:24:12;0.95;;;0.95;;
60588;SDS011;46421;48.610;9.334;2022-12-18T03:26:41;0.88;;;0.88;;
60588;SDS011;46421;48.610;9.334;2022-12-18T03:29:11;0.80;;;0.80;;
60588;SDS011;46421;48.610;9.334;2022-12-18T03:31:41;0.73;;;0.73;;
60588;SDS011;46421;48.610;9.334;2022-12-18T03:34:13;0.93;;;0.93;;
60588;SDS011;46421;48.610;9.334;2022-12-18T03:36:44;0.80;;;0.80;;
60588;SDS011;46421;48.610;9.334;2022-12-18T03:39:10;0.82;;;0.82;;
60588;SDS011;46421;48.610;9.334;2022-12-18T03:52:41;0.90;;;0.90;;
60588;SDS011;46421;48.610;9.334;2022-12-18T03:55:13;0.90;;;0.90;;
60588;SDS011;46421;48.610;9.334;2022-12-18T03:57:38;1.00;;;1.00;;
60588;SDS011;46421;48.610;9.334;2022-12-18T04:00:08;0.80;;;0.80;;
60588;SDS011;46421;48.610;9.334;2022-12-18T04:02:40;0.70;;;0.70;;
60588;SDS011;46421;48.610;9.334;2022-12-18T04:05:09;0.90;;;0.90;;
60588;SDS011;46421;48.610;9.334;2022-12-18T04:07:36;0.90;;;0.90;;
60588;SDS011;46421;48.610;9.334;2022-12-18T04:10:03;0.73;;;0.73;;
60588;SDS011;46421;48.610;9.334;2022-12-18T04:12:32;0.98;;;0.98;;
60588;SDS011;46421;48.610;9.334;2022-12-18T04:14:57;1.00;;;1.00;;
60588;SDS011;46421;48.610;9.334;2022-12-18T04:17:22;0.90;;;0.90;;
60588;SDS011;46421;48.610;9.334;2022-12-18T04:19:48;0.90;;;0.90;;
60588;SDS011;46421;48.610;9.334;2022-12-18T04:22:14;1.00;;;1.00;;
60588;SDS011;46421;48.610;9.334;2022-12-18T04:24:40;0.98;;;0.98;;
60588;SDS011;46421;48.610;9.334;2022-12-18T04:27:05;0.80;;;0.80;;
60588;SDS011;46421;48.610;9.334;2022-12-18T04:29:31;1.00;;;1.00;;
60588;SDS011;46421;48.610;9.334;2022-12-18T04:31:57;0.80;;;0.80;;
60588;SDS011;46421;48.610;9.334;2022-12-18T04:34:22;0.90;;;0.90;;
60588;SDS011;46421;48.610;9.334;2022-12-18T04:36:47;0.70;;;0.70;;
60588;SDS011;46421;48.610;9.334;2022-12-18T04:39:13;0.80;;;0.80;;
60588;SDS011;46421;48.610;9.334;2022-12-18T04:41:38;0.90;;;0.90;;
60588;SDS011;46421;48.610;9.334;2022-12-18T04:44:04;0.90;;;0.90;;
60588;SDS011;46421;48.610;9.334;2022-12-18T04:46:29;1.00;;;1.00;;
60588;SDS011;46421;48.610;9.334;2022-12-18T04:48:55;0.95;;;0.95;;
60588;SDS011;46421;48.610;9.334;2022-12-18T04:51:20;1.00;;;1.00;;
60588;SDS011;46421;48.610;9.334;2022-12-18T04:53:46;1.00;;;1.00;;
60588;SDS011;46421;48.610;9.334;2022-12-18T04:56:12;0.93;;;0.93;;
60588;SDS011;46421;48.610;9.334;2022-12-18T04:58:40;0.80;;;0.80;;
60588;SDS011;46421;48.610;9.334;2022-12-18T05:01:06;0.88;;;0.88;;
60588;SDS011;46421;48.610;9.334;2022-12-18T05:03:32;0.70;;;0.70;;
60588;SDS011;46421;48.610;9.334;2022-12-18T05:05:58;0.90;;;0.90;;
60588;SDS011;46421;48.610;9.334;2022-12-18T05:08:24;0.90;;;0.90;;
60588;SDS011;46421;48.610;9.334;2022-12-18T05:10:49;1.00;;;1.00;;
60588;SDS011;46421;48.610;9.334;2022-12-18T05:13:15;0.90;;;0.90;;
60588;SDS011;46421;48.610;9.334;2022-12-18T05:15:40;0.80;;;0.80;;
60588;SDS011;46421;48.610;9.334;2022-12-18T05:18:07;0.85;;;0.85;;
60588;SDS011;46421;48.610;9.334;2022-12-18T05:20:32;0.90;;;0.90;;
60588;SDS011;46421;48.610;9.334;2022-12-18T05:22:58;0.95;;;0.95;;
60588;SDS011;46421;48.610;9.334;2022-12-18T05:25:23;1.00;;;1.00;;
60588;SDS011;46421;48.610;9.334;2022-12-18T05:27:49;0.90;;;0.90;;
60588;SDS011;46421;48.610;9.334;2022-12-18T05:30:14;1.05;;;1.05;;
60588;SDS011;46421;48.610;9.334;2022-12-18T05:32:40;1.00;;;1.00;;
60588;SDS011;46421;48.610;9.334;2022-12-18T05:35:07;1.00;;;1.00;;
60588;SDS011;46421;48.610;9.334;2022-12-18T05:37:34;0.82;;;0.82;;
60588;SDS011;46421;48.610;9.334;2022-12-18T05:39:59;1.00;;;1.00;;
60588;SDS011;46421;48.610;9.334;2022-12-18T05:42:24;0.80;;;0.80;;
60588;SDS011;46421;48.610;9.334;2022-12-18T05:44:50;0.90;;;0.90;;
60588;SDS011;46421;48.610;9.334;2022-12-18T05:47:15;1.00;;;1.00;;
60588;SDS011;46421;48.610;9.334;2022-12-18T05:49:40;0.98;;;0.98;;
60588;SDS011;46421;48.610;9.334;2022-12-18T05:52:06;0.90;;;0.90;;
60588;SDS011;46421;48.610;9.334;2022-12-18T05:54:31;0.90;;;0.90;;
60588;SDS011;46421;48.610;9.334;2022-12-18T05:56:57;1.10;;;1.10;;
60588;SDS011;46421;48.610;9.334;2022-12-18T05:59:23;0.80;;;0.80;;
60588;SDS011;46421;48.610;9.334;2022-12-18T06:01:48;0.93;;;0.93;;
60588;SDS011;46421;48.610;9.334;2022-12-18T06:04:14;0.82;;;0.82;;
60588;SDS011;46421;48.610;9.334;2022-12-18T06:06:39;0.93;;;0.93;;
60588;SDS011;46421;48.610;9.334;2022-12-18T06:09:05;0.90;;;0.90;;
60588;SDS011;46421;48.610;9.334;2022-12-18T06:11:34;0.80;;;0.80;;
60588;SDS011;46421;48.610;9.334;2022-12-18T06:14:01;0.90;;;0.90;;
60588;SDS011;46421;48.610;9.334;2022-12-18T06:16:28;0.90;;;0.90;;
60588;SDS011;46421;48.610;9.334;2022-12-18T06:18:57;0.90;;;0.90;;
60588;SDS011;46421;48.610;9.334;2022-12-18T06:21:23;0.90;;;0.90;;
60588;SDS011;46421;48.610;9.334;2022-12-18T06:23:49;1.00;;;1.00;;
60588;SDS011;46421;48.610;9.334;2022-12-18T06:26:14;0.90;;;0.90;;
60588;SDS011;46421;48.610;9.334;2022-12-18T06:28:40;0.90;;;0.90;;
60588;SDS011;46421;48.610;9.334;2022-12-18T06:31:05;0.80;;;0.80;;
60588;SDS011;46421;48.610;9.334;2022-12-18T06:33:32;0.75;;;0.75;;
60588;SDS011;46421;48.610;9.334;2022-12-18T06:36:08;1.00;;;1.00;;
60588;SDS011;46421;48.610;9.334;2022-12-18T06:38:36;0.80;;;0.80;;
60588;SDS011;46421;48.610;9.334;2022-12-18T06:41:06;0.70;;;0.70;;
60588;SDS011;46421;48.610;9.334;2022-12-18T06:43:33;0.82;;;0.82;;
60588;SDS011;46421;48.610;9.334;2022-12-18T06:46:01;0.90;;;0.90;;
60588;SDS011;46421;48.610;9.334;2022-12-18T06:48:28;0.90;;;0.90;;
60588;SDS011;46421;48.610;9.334;2022-12-18T06:50:53;1.00;;;1.00;;
60588;SDS011;46421;48.610;9.334;2022-12-18T06:53:19;1.00;;;1.00;;
60588;SDS011;46421;48.610;9.334;2022-12-18T06:55:44;1.00;;;1.00;;
60588;SDS011;46421;48.610;9.334;2022-12-18T06:58:10;0.80;;;0.80;;
60588;SDS011;46421;48.610;9.334;2022-12-18T07:00:35;0.90;;;0.90;;
60588;SDS011;46421;48.610;9.334;2022-12-18T07:03:01;1.00;;;1.00;;
60588;SDS011;46421;48.610;9.334;2022-12-18T07:05:26;1.00;;;1.00;;
60588;SDS011;46421;48.610;9.334;2022-12-18T07:07:51;0.90;;;0.90;;
60588;SDS011;46421;48.610;9.334;2022-12-18T07:10:17;0.90;;;0.90;;
60588;SDS011;46421;48.610;9.334;2022-12-18T07:12:42;0.90;;;0.90;;
60588;SDS011;46421;48.610;9.334;2022-12-18T07:15:08;0.95;;;0.95;;
60588;SDS011;46421;48.610;9.334;2022-12-18T07:17:34;0.93;;;0.93;;
60588;SDS011;46421;48.610;9.334;2022-12-18T07:19:59;0.90;;;0.90;;
60588;SDS011;46421;48.610;9.334;2022-12-18T07:22:25;1.00;;;1.00;;
60588;SDS011;46421;48.610;9.334;2022-12-18T07:24:51;0.90;;;0.90;;
60588;SDS011;46421;48.610;9.334;2022-12-18T07:27:16;0.90;;;0.90;;
60588;SDS011;46421;48.610;9.334;2022-12-18T07:29:41;0.85;;;0.85;;
60588;SDS011;46421;48.610;9.334;2022-12-18T07:32:07;0.80;;;0.80;;
60588;SDS011;46421;48.610;9.334;2022-12-18T07:34:32;0.82;;;0.82;;
60588;SDS011;46421;48.610;9.334;2022-12-18T07:36:58;0.90;;;0.90;;
60588;SDS011;46421;48.610;9.334;2022-12-18T07:39:23;0.80;;;0.80;;
60588;SDS011;46421;48.610;9.334;2022-12-18T07:41:48;0.90;;;0.90;;
60588;SDS011;46421;48.610;9.334;2022-12-18T07:44:34;1.10;;;1.10;;
60588;SDS011;46421;48.610;9.334;2022-12-18T07:46:59;0.88;;;0.88;;
60588;SDS011;46421;48.610;9.334;2022-12-18T07:49:24;0.98;;;0.98;;
60588;SDS011;46421;48.610;9.334;2022-12-18T07:51:50;0.90;;;0.90;;
60588;SDS011;46421;48.610;9.334;2022-12-18T07:54:15;1.00;;;1.00;;
60588;SDS011;46421;48.610;9.334;2022-12-18T07:56:41;1.00;;;1.00;;
60588;SDS011;46421;48.610;9.334;2022-12-18T07:59:06;1.00;;;1.00;;
60588;SDS011;46421;48.610;9.334;2022-12-18T08:01:32;0.90;;;0.90;;
60588;SDS011;46421;48.610;9.334;2022-12-18T08:03:59;0.98;;;0.98;;
60588;SDS011;46421;48.610;9.334;2022-12-18T08:06:24;0.80;;;0.80;;
60588;SDS011;46421;48.610;9.334;2022-12-18T08:08:53;0.90;;;0.90;;
60588;SDS011;46421;48.610;9.334;2022-12-18T08:11:19;0.98;;;0.98;;
60588;SDS011;46421;48.610;9.334;2022-12-18T08:13:44;0.80;;;0.80;;
60588;SDS011;46421;48.610;9.334;2022-12-18T08:16:10;0.90;;;0.90;;
60588;SDS011;46421;48.610;9.334;2022-12-18T08:18:36;0.90;;;0.90;;
60588;SDS011;46421;48.610;9.334;2022-12-18T08:21:12;0.80;;;0.80;;
60588;SDS011;46421;48.610;9.334;2022-12-18T08:23:47;0.80;;;0.80;;
60588;SDS011;46421;48.610;9.334;2022-12-18T08:26:12;1.00;;;1.00;;
60588;SDS011;46421;48.610;9.334;2022-12-18T08:28:39;0.90;;;0.90;;
60588;SDS011;46421;48.610;9.334;2022-12-18T08:31:06;0.77;;;0.77;;
60588;SDS011;46421;48.610;9.334;2022-12-18T08:33:32;1.00;;;1.00;;
60588;SDS011;46421;48.610;9.334;2022-12-18T08:36:01;1.10;;;1.10;;
60588;SDS011;46421;48.610;9.334;2022-12-18T08:38:27;1.00;;;1.00;;
60588;SDS011;46421;48.610;9.334;2022-12-18T08:40:59;0.88;;;0.88;;
60588;SDS011;46421;48.610;9.334;2022-12-18T08:43:26;0.95;;;0.95;;
60588;SDS011;46421;48.610;9.334;2022-12-18T08:46:10;0.75;;;0.75;;
60588;SDS011;46421;48.610;9.334;2022-12-18T08:48:36;0.68;;;0.68;;
60588;SDS011;46421;48.610;9.334;2022-12-18T08:51:01;0.80;;;0.80;;
60588;SDS011;46421;48.610;9.334;2022-12-18T08:53:27;0.70;;;0.70;;
60588;SDS011;46421;48.610;9.334;2022-12-18T08:55:53;0.40;;;0.40;;
60588;SDS011;46421;48.610;9.334;2022-12-18T08:58:19;0.40;;;0.40;;
60588;SDS011;46421;48.610;9.334;2022-12-18T09:00:44;0.60;;;0.60;;
60588;SDS011;46421;48.610;9.334;2022-12-18T09:03:11;0.50;;;0.50;;
60588;SDS011;46421;48.610;9.334;2022-12-18T09:05:40;0.70;;;0.70;;
60588;SDS011;46421;48.610;9.334;2022-12-18T09:08:06;0.73;;;0.73;;
60588;SDS011;46421;48.610;9.334;2022-12-18T09:10:32;0.80;;;0.80;;
60588;SDS011;46421;48.610;9.334;2022-12-18T09:12:57;0.70;;;0.70;;
60588;SDS011;46421;48.610;9.334;2022-12-18T09:15:23;0.60;;;0.60;;
60588;SDS011;46421;48.610;9.334;2022-12-18T09:17:48;0.60;;;0.60;;
60588;SDS011;46421;48.610;9.334;2022-12-18T09:20:14;0.70;;;0.70;;
60588;SDS011;46421;48.610;9.334;2022-12-18T09:22:41;0.70;;;0.70;;
60588;SDS011;46421;48.610;9.334;2022-12-18T09:25:07;0.70;;;0.70;;
60588;SDS011;46421;48.610;9.334;2022-12-18T09:27:33;0.80;;;0.80;;
60588;SDS011;46421;48.610;9.334;2022-12-18T09:29:59;0.90;;;0.90;;
60588;SDS011;46421;48.610;9.334;2022-12-18T09:32:24;0.90;;;0.90;;
60588;SDS011;46421;48.610;9.334;2022-12-18T09:34:50;0.90;;;0.90;;
60588;SDS011;46421;48.610;9.334;2022-12-18T09:37:15;0.90;;;0.90;;
60588;SDS011;46421;48.610;9.334;2022-12-18T09:39:40;0.90;;;0.90;;
60588;SDS011;46421;48.610;9.334;2022-12-18T09:42:06;0.90;;;0.90;;
60588;SDS011;46421;48.610;9.334;2022-12-18T09:44:47;0.75;;;0.75;;
60588;SDS011;46421;48.610;9.334;2022-12-18T09:47:27;0.90;;;0.90;;
60588;SDS011;46421;48.610;9.334;2022-12-18T09:50:00;0.90;;;0.90;;
60588;SDS011;46421;48.610;9.334;2022-12-18T09:52:39;0.82;;;0.82;;
60588;SDS011;46421;48.610;9.334;2022-12-18T09:58:24;0.82;;;0.82;;
60588;SDS011;46421;48.610;9.334;2022-12-18T10:00:45;0.80;;;0.80;;
60588;SDS011;46421;48.610;9.334;2022-12-18T10:03:12;0.90;;;0.90;;
60588;SDS011;46421;48.610;9.334;2022-12-18T10:05:54;0.90;;;0.90;;
60588;SDS011;46421;48.610;9.334;2022-12-18T10:08:34;0.95;;;0.95;;
60588;SDS011;46421;48.610;9.334;2022-12-18T10:14:23;0.80;;;0.80;;
60588;SDS011;46421;48.610;9.334;2022-12-18T10:19:40;0.68;;;0.68;;
60588;SDS011;46421;48.610;9.334;2022-12-18T10:22:19;0.85;;;0.85;;
60588;SDS011;46421;48.610;9.334;2022-12-18T10:25:05;0.70;;;0.70;;
60588;SDS011;46421;48.610;9.334;2022-12-18T10:27:46;0.80;;;0.80;;
60588;SDS011;46421;48.610;9.334;2022-12-18T10:30:20;0.80;;;0.80;;
60588;SDS011;46421;48.610;9.334;2022-12-18T10:32:47;0.77;;;0.77;;
60588;SDS011;46421;48.610;9.334;2022-12-18T10:35:20;0.60;;;0.60;;
60588;SDS011;46421;48.610;9.334;2022-12-18T10:40:59;0.75;;;0.75;;
60588;SDS011;46421;48.610;9.334;2022-12-18T10:43:27;0.88;;;0.88;;
60588;SDS011;46421;48.610;9.334;2022-12-18T10:46:18;1.00;;;1.00;;
60588;SDS011;46421;48.610;9.334;2022-12-18T10:51:19;0.70;;;0.70;;
60588;SDS011;46421;48.610;9.334;2022-12-18T10:53:51;0.80;;;0.80;;
60588;SDS011;46421;48.610;9.334;2022-12-18T10:56:22;0.77;;;0.77;;
60588;SDS011;46421;48.610;9.334;2022-12-18T10:58:59;0.70;;;0.70;;
60588;SDS011;46421;48.610;9.334;2022-12-18T11:01:32;0.80;;;0.80;;
60588;SDS011;46421;48.610;9.334;2022-12-18T11:07:01;0.70;;;0.70;;
60588;SDS011;46421;48.610;9.334;2022-12-18T11:11:58;0.70;;;0.70;;
60588;SDS011;46421;48.610;9.334;2022-12-18T11:16:59;0.70;;;0.70;;
60588;SDS011;46421;48.610;9.334;2022-12-18T11:21:54;0.70;;;0.70;;
60588;SDS011;46421;48.610;9.334;2022-12-18T11:24:32;0.65;;;0.65;;
60588;SDS011;46421;48.610;9.334;2022-12-18T11:27:02;0.70;;;0.70;;
60588;SDS011;46421;48.610;9.334;2022-12-18T11:29:40;0.68;;;0.68;;
60588;SDS011;46421;48.610;9.334;2022-12-18T11:37:46;0.80;;;0.80;;
60588;SDS011;46421;48.610;9.334;2022-12-18T11:40:19;0.80;;;0.80;;
60588;SDS011;46421;48.610;9.334;2022-12-18T11:42:55;0.70;;;0.70;;
60588;SDS011;46421;48.610;9.334;2022-12-18T11:45:28;0.60;;;0.60;;
60588;SDS011;46421;48.610;9.334;2022-12-18T11:50:50;0.50;;;0.50;;
60588;SDS011;46421;48.610;9.334;2022-12-18T11:53:17;0.60;;;0.60;;
60588;SDS011;46421;48.610;9.334;2022-12-18T12:01:13;0.50;;;0.50;;
60588;SDS011;46421;48.610;9.334;2022-12-18T12:03:58;0.45;;;0.45;;
60588;SDS011;46421;48.610;9.334;2022-12-18T12:06:45;0.50;;;0.50;;
60588;SDS011;46421;48.610;9.334;2022-12-18T12:15:26;0.40;;;0.40;;
60588;SDS011;46421;48.610;9.334;2022-12-18T12:18:22;0.50;;;0.50;;
60588;SDS011;46421;48.610;9.334;2022-12-18T12:23:44;0.40;;;0.40;;
60588;SDS011;46421;48.610;9.334;2022-12-18T12:26:26;0.32;;;0.32;;
60588;SDS011;46421;48.610;9.334;2022-12-18T12:38:08;0.47;;;0.47;;
60588;SDS011;46421;48.610;9.334;2022-12-18T12:40:49;0.40;;;0.40;;
60588;SDS011;46421;48.610;9.334;2022-12-18T12:43:25;0.40;;;0.40;;
60588;SDS011;46421;48.610;9.334;2022-12-18T12:46:06;0.63;;;0.63;;
60588;SDS011;46421;48.610;9.334;2022-12-18T12:48:36;0.40;;;0.40;;
60588;SDS011;46421;48.610;9.334;2022-12-18T12:51:25;0.50;;;0.50;;
60588;SDS011;46421;48.610;9.334;2022-12-18T12:53:53;0.47;;;0.47;;
60588;SDS011;46421;48.610;9.334;2022-12-18T12:56:21;0.60;;;0.60;;
60588;SDS011;46421;48.610;9.334;2022-12-18T13:01:47;0.50;;;0.50;;
60588;SDS011;46421;48.610;9.334;2022-12-18T13:04:27;0.47;;;0.47;;
60588;SDS011;46421;48.610;9.334;2022-12-18T13:07:11;0.50;;;0.50;;
60588;SDS011;46421;48.610;9.334;2022-12-18T13:15:43;0.50;;;0.50;;
60588;SDS011;46421;48.610;9.334;2022-12-18T13:18:28;0.40;;;0.40;;
60588;SDS011;46421;48.610;9.334;2022-12-18T13:25:54;0.50;;;0.50;;
60588;SDS011;46421;48.610;9.334;2022-12-18T13:31:10;0.60;;;0.60;;
60588;SDS011;46421;48.610;9.334;2022-12-18T13:34:09;0.40;;;0.40;;
60588;SDS011;46421;48.610;9.334;2022-12-18T13:36:41;0.50;;;0.50;;
60588;SDS011;46421;48.610;9.334;2022-12-18T13:41:46;0.50;;;0.50;;
60588;SDS011;46421;48.610;9.334;2022-12-18T13:44:35;0.70;;;0.70;;
60588;SDS011;46421;48.610;9.334;2022-12-18T13:47:05;0.60;;;0.60;;
60588;SDS011;46421;48.610;9.334;2022-12-18T13:49:57;0.63;;;0.63;;
60588;SDS011;46421;48.610;9.334;2022-12-18T13:52:28;0.65;;;0.65;;
60588;SDS011;46421;48.610;9.334;2022-12-18T13:55:01;0.57;;;0.57;;
60588;SDS011;46421;48.610;9.334;2022-12-18T13:57:37;0.60;;;0.60;;
60588;SDS011;46421;48.610;9.334;2022-12-18T14:02:47;0.73;;;0.73;;
60588;SDS011;46421;48.610;9.334;2022-12-18T14:05:29;0.50;;;0.50;;
60588;SDS011;46421;48.610;9.334;2022-12-18T14:08:04;0.57;;;0.57;;
60588;SDS011;46421;48.610;9.334;2022-12-18T14:10:33;0.63;;;0.63;;
60588;SDS011;46421;48.610;9.334;2022-12-18T14:12:58;0.60;;;0.60;;
60588;SDS011;46421;48.610;9.334;2022-12-18T14:15:34;0.73;;;0.73;;
60588;SDS011;46421;48.610;9.334;2022-12-18T14:21:05;0.60;;;0.60;;
60588;SDS011;46421;48.610;9.334;2022-12-18T14:26:23;0.50;;;0.50;;
60588;SDS011;46421;48.610;9.334;2022-12-18T14:28:57;0.70;;;0.70;;
60588;SDS011;46421;48.610;9.334;2022-12-18T14:31:28;0.63;;;0.63;;
60588;SDS011;46421;48.610;9.334;2022-12-18T14:33:55;0.65;;;0.65;;
60588;SDS011;46421;48.610;9.334;2022-12-18T14:36:22;0.63;;;0.63;;
60588;SDS011;46421;48.610;9.334;2022-12-18T14:38:50;0.60;;;0.60;;
60588;SDS011;46421;48.610;9.334;2022-12-18T14:41:18;0.80;;;0.80;;
60588;SDS011;46421;48.610;9.334;2022-12-18T14:43:46;0.50;;;0.50;;
60588;SDS011;46421;48.610;9.334;2022-12-18T14:46:46;0.50;;;0.50;;
60588;SDS011;46421;48.610;9.334;2022-12-18T14:51:55;0.60;;;0.60;;
60588;SDS011;46421;48.610;9.334;2022-12-18T14:54:22;0.80;;;0.80;;
60588;SDS011;46421;48.610;9.334;2022-12-18T14:57:35;0.70;;;0.70;;
60588;SDS011;46421;48.610;9.334;2022-12-18T14:59:49;0.75;;;0.75;;
60588;SDS011;46421;48.610;9.334;2022-12-18T15:02:22;0.60;;;0.60;;
60588;SDS011;46421;48.610;9.334;2022-12-18T15:07:51;0.60;;;0.60;;
60588;SDS011;46421;48.610;9.334;2022-12-18T15:18:11;0.73;;;0.73;;
60588;SDS011;46421;48.610;9.334;2022-12-18T15:20:41;0.70;;;0.70;;
60588;SDS011;46421;48.610;9.334;2022-12-18T15:23:19;0.77;;;0.77;;
60588;SDS011;46421;48.610;9.334;2022-12-18T15:25:45;0.80;;;0.80;;
60588;SDS011;46421;48.610;9.334;2022-12-18T15:28:22;0.73;;;0.73;;
60588;SDS011;46421;48.610;9.334;2022-12-18T15:31:03;0.77;;;0.77;;
60588;SDS011;46421;48.610;9.334;2022-12-18T15:36:17;0.70;;;0.70;;
60588;SDS011;46421;48.610;9.334;2022-12-18T15:38:46;0.70;;;0.70;;
60588;SDS011;46421;48.610;9.334;2022-12-18T15:41:13;0.88;;;0.88;;
60588;SDS011;46421;48.610;9.334;2022-12-18T15:43:39;0.85;;;0.85;;
60588;SDS011;46421;48.610;9.334;2022-12-18T15:46:15;0.88;;;0.88;;
60588;SDS011;46421;48.610;9.334;2022-12-18T15:48:44;0.80;;;0.80;;
60588;SDS011;46421;48.610;9.334;2022-12-18T15:51:21;0.80;;;0.80;;
60588;SDS011;46421;48.610;9.334;2022-12-18T15:53:50;0.77;;;0.77;;
60588;SDS011;46421;48.610;9.334;2022-12-18T15:56:18;0.80;;;0.80;;
60588;SDS011;46421;48.610;9.334;2022-12-18T15:59:04;0.70;;;0.70;;
60588;SDS011;46421;48.610;9.334;2022-12-18T16:01:35;0.80;;;0.80;;
60588;SDS011;46421;48.610;9.334;2022-12-18T16:04:00;0.80;;;0.80;;
60588;SDS011;46421;48.610;9.334;2022-12-18T16:06:26;0.90;;;0.90;;
60588;SDS011;46421;48.610;9.334;2022-12-18T16:08:51;0.70;;;0.70;;
60588;SDS011;46421;48.610;9.334;2022-12-18T16:16:46;0.70;;;0.70;;
60588;SDS011;46421;48.610;9.334;2022-12-18T16:19:14;0.80;;;0.80;;
60588;SDS011;46421;48.610;9.334;2022-12-18T16:21:40;0.80;;;0.80;;
60588;SDS011;46421;48.610;9.334;2022-12-18T16:24:05;0.90;;;0.90;;
60588;SDS011;46421;48.610;9.334;2022-12-18T16:26:38;0.70;;;0.70;;
60588;SDS011;46421;48.610;9.334;2022-12-18T16:29:03;0.93;;;0.93;;
60588;SDS011;46421;48.610;9.334;2022-12-18T16:31:28;0.80;;;0.80;;
60588;SDS011;46421;48.610;9.334;2022-12-18T16:36:39;0.80;;;0.80;;
60588;SDS011;46421;48.610;9.334;2022-12-18T16:39:04;0.90;;;0.90;;
60588;SDS011;46421;48.610;9.334;2022-12-18T16:41:29;0.90;;;0.90;;
60588;SDS011;46421;48.610;9.334;2022-12-18T16:43:58;0.90;;;0.90;;
60588;SDS011;46421;48.610;9.334;2022-12-18T16:46:27;0.90;;;0.90;;
60588;SDS011;46421;48.610;9.334;2022-12-18T16:48:52;0.88;;;0.88;;
60588;SDS011;46421;48.610;9.334;2022-12-18T16:51:18;0.80;;;0.80;;
60588;SDS011;46421;48.610;9.334;2022-12-18T16:53:43;0.82;;;0.82;;
60588;SDS011;46421;48.610;9.334;2022-12-18T16:56:08;0.82;;;0.82;;
60588;SDS011;46421;48.610;9.334;2022-12-18T16:58:34;0.90;;;0.90;;
60588;SDS011;46421;48.610;9.334;2022-12-18T17:00:59;0.70;;;0.70;;
60588;SDS011;46421;48.610;9.334;2022-12-18T17:03:25;0.90;;;0.90;;
60588;SDS011;46421;48.610;9.334;2022-12-18T17:05:50;0.80;;;0.80;;
60588;SDS011;46421;48.610;9.334;2022-12-18T17:08:16;0.82;;;0.82;;
60588;SDS011;46421;48.610;9.334;2022-12-18T17:10:41;0.90;;;0.90;;
60588;SDS011;46421;48.610;9.334;2022-12-18T17:13:06;0.80;;;0.80;;